createdAt,value
2023-04-23T00:00:32.935Z,3.03
2023-04-23T00:03:36.544Z,3.40
2023-04-23T00:06:38.557Z,1.50
2023-04-23T00:09:40.698Z,2.60
2023-04-23T00:12:43.543Z,1.80
2023-04-23T00:15:45.429Z,1.55
2023-04-23T00:18:47.829Z,1.95
2023-04-23T00:21:49.378Z,1.58
2023-04-23T00:24:51.014Z,1.30
2023-04-23T00:27:52.529Z,1.70
2023-04-23T00:30:54.001Z,1.40
2023-04-23T00:33:56.040Z,2.10
2023-04-23T00:36:57.679Z,4.03
2023-04-23T00:39:59.294Z,1.95
2023-04-23T00:43:01.557Z,1.80
2023-04-23T00:46:03.574Z,1.83
2023-04-23T00:49:05.480Z,2.63
2023-04-23T00:52:07.133Z,2.75
2023-04-23T00:55:09.090Z,5.18
2023-04-23T00:58:10.878Z,1.73
2023-04-23T01:01:14.022Z,2.42
2023-04-23T01:04:17.921Z,1.92
2023-04-23T01:07:19.671Z,1.50
2023-04-23T01:10:21.682Z,1.98
2023-04-23T01:13:26.482Z,1.83
2023-04-23T01:16:28.409Z,2.00
2023-04-23T01:19:29.894Z,2.75
2023-04-23T01:22:31.419Z,2.63
2023-04-23T01:25:32.981Z,1.65
2023-04-23T01:28:34.991Z,1.65
2023-04-23T01:31:37.194Z,2.65
2023-04-23T01:34:39.906Z,1.35
2023-04-23T01:37:43.312Z,1.35
2023-04-23T01:40:44.887Z,1.95
2023-04-23T01:43:46.499Z,2.08
2023-04-23T01:46:48.037Z,1.30
2023-04-23T01:49:49.778Z,1.40
2023-04-23T01:52:51.337Z,1.20
2023-04-23T01:55:56.016Z,1.30
2023-04-23T01:58:57.616Z,1.58
2023-04-23T02:01:59.285Z,2.15
2023-04-23T02:05:05.697Z,1.48
2023-04-23T02:08:07.593Z,1.98
2023-04-23T02:11:09.177Z,1.40
2023-04-23T02:14:11.014Z,1.55
2023-04-23T02:17:12.496Z,2.08
2023-04-23T02:20:14.127Z,13.38
2023-04-23T02:23:15.676Z,9.77
2023-04-23T02:26:18.741Z,7.95
2023-04-23T02:29:20.925Z,1.42
2023-04-23T02:32:22.556Z,6.03
2023-04-23T02:35:24.493Z,2.40
2023-04-23T02:38:26.022Z,1.70
2023-04-23T02:41:27.510Z,1.90
2023-04-23T02:44:28.987Z,5.57
2023-04-23T02:47:31.258Z,5.10
2023-04-23T02:50:33.425Z,2.42
2023-04-23T02:53:34.937Z,2.53
2023-04-23T02:56:36.511Z,2.55
2023-04-23T02:59:38.130Z,1.40
2023-04-23T03:02:39.794Z,2.45
2023-04-23T03:05:41.506Z,1.67
2023-04-23T03:08:42.952Z,3.60
2023-04-23T03:11:44.418Z,2.45
2023-04-23T03:14:48.046Z,1.70
2023-04-23T03:17:50.922Z,1.20
2023-04-23T03:20:52.511Z,1.30
2023-04-23T03:23:54.008Z,1.05
2023-04-23T03:26:55.450Z,1.30
2023-04-23T03:29:56.892Z,1.40
2023-04-23T03:32:58.546Z,1.42
2023-04-23T03:36:00.585Z,1.30
2023-04-23T03:39:05.185Z,1.70
2023-04-23T03:42:19.474Z,1.20
2023-04-23T03:45:21.634Z,1.38
2023-04-23T03:48:23.466Z,1.40
2023-04-23T07:10:29.805Z,23.95
2023-04-23T07:13:31.275Z,25.40
2023-04-23T07:16:33.969Z,20.33
2023-04-23T07:19:35.613Z,18.02
2023-04-23T07:22:37.090Z,15.05
2023-04-23T07:25:38.589Z,12.75
2023-04-23T07:28:40.079Z,11.50
2023-04-23T07:31:42.006Z,9.02
2023-04-23T07:34:44.160Z,8.63
2023-04-23T07:37:45.904Z,5.90
2023-04-23T07:40:47.719Z,7.20
2023-04-23T07:43:49.263Z,6.07
2023-04-23T07:46:50.917Z,4.47
2023-04-23T07:49:52.389Z,4.85
2023-04-23T07:52:53.887Z,7.75
2023-04-23T07:55:58.601Z,3.20
2023-04-23T07:59:00.723Z,3.30
2023-04-23T08:02:02.202Z,2.70
2023-04-23T08:05:03.943Z,3.72
2023-04-23T08:08:05.611Z,3.30
2023-04-23T08:11:07.439Z,2.88
2023-04-23T08:14:09.001Z,4.10
2023-04-23T08:17:10.578Z,2.50
2023-04-23T08:20:12.277Z,3.03
2023-04-23T08:23:13.882Z,3.28
2023-04-23T08:26:15.386Z,2.50
2023-04-23T08:29:16.839Z,2.30
2023-04-23T08:32:18.449Z,2.53
2023-04-23T08:35:20.393Z,2.55
2023-04-23T08:38:22.118Z,4.07
2023-04-23T08:41:30.853Z,2.60
2023-04-23T08:44:32.495Z,2.67
2023-04-23T08:47:35.256Z,2.30
2023-04-23T08:50:38.512Z,2.22
2023-04-23T08:53:44.356Z,2.20
2023-04-23T08:56:46.177Z,2.42
2023-04-23T08:59:47.691Z,2.30
2023-04-23T09:02:49.831Z,2.03
2023-04-23T09:05:53.174Z,2.80
2023-04-23T09:08:55.369Z,2.63
2023-04-23T09:11:57.568Z,2.47
2023-04-23T09:14:59.594Z,2.70
2023-04-23T09:18:02.017Z,2.20
2023-04-23T09:21:04.417Z,3.28
2023-04-23T09:24:06.320Z,3.40
2023-04-23T09:27:07.869Z,7.65
2023-04-23T09:30:11.703Z,2.40
2023-04-23T09:33:13.525Z,3.33
2023-04-23T09:36:15.586Z,3.58
2023-04-23T09:39:19.482Z,4.95
2023-04-23T09:42:24.066Z,8.68
2023-04-23T09:45:25.908Z,12.13
2023-04-23T09:48:40.942Z,10.85
2023-04-23T09:51:47.483Z,8.05
2023-04-23T09:54:49.004Z,7.18
2023-04-23T09:57:50.546Z,10.43
2023-04-23T10:00:52.208Z,6.97
2023-04-23T10:03:54.110Z,6.75
2023-04-23T10:07:13.706Z,8.20
2023-04-23T10:10:19.876Z,7.43
2023-04-23T10:13:21.539Z,7.68
2023-04-23T10:16:26.822Z,7.90
2023-04-23T10:19:33.052Z,8.13
2023-04-23T10:22:36.014Z,7.80
2023-04-23T10:25:39.176Z,10.23
2023-04-23T10:28:40.954Z,7.53
2023-04-23T10:31:43.126Z,7.03
2023-04-23T10:34:45.517Z,7.45
2023-04-23T10:37:48.498Z,9.05
2023-04-23T10:40:55.245Z,5.90
2023-04-23T10:43:57.678Z,6.13
2023-04-23T10:47:01.737Z,5.85
2023-04-23T10:50:19.731Z,6.38
2023-04-23T10:53:21.658Z,7.40
2023-04-23T10:56:23.170Z,7.00
2023-04-23T10:59:24.960Z,9.30
2023-04-23T11:02:43.780Z,6.22
2023-04-23T11:05:45.470Z,6.57
2023-04-23T11:08:54.307Z,4.95
2023-04-23T11:11:57.997Z,7.65
2023-04-23T11:15:00.238Z,5.65
2023-04-23T11:18:01.999Z,6.25
2023-04-23T11:21:04.584Z,4.85
2023-04-23T11:24:07.841Z,7.60
2023-04-23T11:27:11.757Z,7.13
2023-04-23T11:30:16.277Z,6.80
2023-04-23T11:33:17.935Z,6.28
2023-04-23T11:36:19.579Z,5.72
2023-04-23T11:39:24.098Z,7.03
2023-04-23T11:42:25.903Z,4.70
2023-04-23T11:45:29.169Z,4.85
2023-04-23T11:48:30.708Z,4.50
2023-04-23T11:51:32.613Z,4.43
2023-04-23T11:54:34.638Z,4.30
2023-04-23T11:57:56.828Z,4.65
2023-04-23T12:01:00.483Z,4.65
2023-04-23T12:04:10.267Z,4.55
2023-04-23T12:07:23.390Z,5.57
2023-04-23T12:10:27.092Z,5.78
2023-04-23T12:13:31.301Z,3.53
2023-04-23T12:16:46.918Z,3.78
2023-04-23T12:19:50.575Z,6.28
2023-04-23T12:22:52.045Z,3.38
2023-04-23T12:25:54.912Z,3.92
2023-04-23T12:28:59.355Z,3.25
2023-04-23T12:32:00.968Z,3.10
2023-04-23T12:35:06.060Z,3.88
2023-04-23T12:38:07.566Z,3.38
2023-04-23T12:41:09.137Z,3.17
2023-04-23T12:44:10.869Z,3.50
2023-04-23T12:47:12.320Z,3.97
2023-04-23T12:50:13.801Z,3.33
2023-04-23T12:53:15.562Z,4.47
2023-04-23T12:56:17.079Z,4.97
2023-04-23T12:59:18.542Z,3.38
2023-04-23T13:02:20.487Z,3.20
2023-04-23T13:05:22.122Z,3.35
2023-04-23T13:08:23.553Z,3.42
2023-04-23T13:11:25.022Z,4.50
2023-04-23T13:14:27.165Z,2.97
2023-04-23T13:17:28.802Z,5.20
2023-04-23T13:20:30.362Z,4.57
2023-04-23T13:23:31.869Z,3.17
2023-04-23T13:26:33.819Z,2.95
2023-04-23T13:29:35.380Z,2.90
2023-04-23T13:32:36.900Z,4.78
2023-04-23T13:35:38.503Z,4.07
2023-04-23T13:38:40.041Z,3.30
2023-04-23T13:41:41.743Z,4.53
2023-04-23T13:44:43.179Z,5.97
2023-04-23T13:47:44.737Z,2.72
2023-04-23T13:50:46.480Z,2.83
2023-04-23T13:53:47.973Z,3.97
2023-04-23T13:56:49.438Z,2.35
2023-04-23T13:59:51.000Z,2.88
2023-04-23T14:02:52.517Z,2.72
2023-04-23T14:05:53.979Z,4.38
2023-04-23T14:08:55.460Z,3.45
2023-04-23T14:11:56.961Z,4.82
2023-04-23T14:14:58.467Z,2.45
2023-04-23T14:18:00.056Z,2.70
2023-04-23T14:21:04.874Z,3.13
2023-04-23T14:24:17.834Z,2.70
2023-04-23T14:27:19.307Z,3.83
2023-04-23T14:30:21.296Z,2.78
2023-04-23T14:33:23.255Z,3.25
2023-04-23T14:36:24.961Z,3.08
2023-04-23T14:39:26.809Z,2.63
2023-04-23T14:42:28.367Z,3.53
2023-04-23T14:45:32.658Z,2.30
2023-04-23T14:48:34.632Z,3.20
2023-04-23T14:51:37.370Z,2.53
2023-04-23T14:54:38.947Z,2.28
2023-04-23T14:57:40.532Z,2.10
2023-04-23T15:00:42.069Z,2.03
2023-04-23T15:03:44.774Z,2.80
2023-04-23T15:06:46.528Z,2.10
2023-04-23T15:09:48.017Z,2.97
2023-04-23T15:12:56.657Z,2.25
2023-04-23T15:16:02.937Z,3.22
2023-04-23T15:19:09.984Z,3.00
2023-04-23T15:22:11.550Z,2.13
2023-04-23T15:25:13.409Z,2.40
2023-04-23T15:28:15.036Z,2.60
2023-04-23T15:31:16.545Z,3.45
2023-04-23T15:34:18.082Z,2.28
2023-04-23T15:37:21.060Z,2.05
2023-04-23T15:40:23.132Z,2.30
2023-04-23T15:43:24.673Z,2.35
2023-04-23T15:46:26.204Z,1.98
2023-04-23T15:49:27.804Z,2.05
2023-04-23T15:52:29.712Z,2.78
2023-04-23T15:55:32.487Z,2.17
2023-04-23T15:58:33.926Z,2.30
2023-04-23T16:01:36.124Z,2.53
2023-04-23T16:04:38.148Z,2.80
2023-04-23T16:07:39.951Z,2.17
2023-04-23T16:10:41.465Z,1.98
2023-04-23T16:13:43.054Z,2.40
2023-04-23T16:16:44.658Z,2.47
2023-04-23T16:19:46.516Z,2.03
2023-04-23T16:22:48.045Z,1.83
2023-04-23T16:25:49.596Z,2.22
2023-04-23T16:29:05.703Z,2.55
2023-04-23T16:32:13.697Z,2.85
2023-04-23T16:35:15.269Z,2.22
2023-04-23T16:38:16.813Z,3.00
2023-04-23T16:41:21.366Z,2.20
2023-04-23T16:44:22.880Z,2.60
2023-04-23T16:47:24.357Z,2.33
2023-04-23T16:50:25.863Z,2.25
2023-04-23T16:53:27.392Z,2.22
2023-04-23T16:56:29.483Z,2.13
2023-04-23T16:59:31.395Z,2.75
2023-04-23T17:02:34.439Z,2.22
2023-04-23T17:05:39.472Z,2.05
2023-04-23T17:08:41.135Z,2.00
2023-04-23T17:11:42.612Z,1.90
2023-04-23T17:14:44.283Z,2.35
2023-04-23T17:17:46.033Z,1.95
2023-04-23T17:20:47.585Z,3.88
2023-04-23T17:23:49.176Z,2.00
2023-04-23T17:26:50.712Z,1.80
2023-04-23T17:29:52.302Z,2.35
2023-04-23T17:32:53.989Z,1.70
2023-04-23T17:35:55.790Z,1.92
2023-04-23T17:38:57.610Z,1.95
2023-04-23T17:41:59.161Z,1.88
2023-04-23T17:45:00.924Z,2.22
2023-04-23T17:48:02.933Z,2.03
2023-04-23T17:51:04.446Z,2.03
2023-04-23T17:54:06.253Z,1.83
2023-04-23T17:57:09.656Z,1.70
2023-04-23T18:00:12.297Z,1.60
2023-04-23T18:03:17.469Z,2.13
2023-04-23T18:06:19.126Z,2.05
2023-04-23T18:09:20.902Z,1.83
2023-04-23T18:12:22.474Z,2.00
2023-04-23T18:15:25.569Z,1.92
2023-04-23T18:18:27.691Z,2.20
2023-04-23T18:21:29.381Z,3.85
2023-04-23T18:24:30.913Z,1.75
2023-04-23T18:27:34.122Z,2.30
